createdAt,value
2023-02-11T00:00:18.789Z,73.53
2023-02-11T00:02:47.824Z,73.29
2023-02-11T00:05:14.860Z,73.45
2023-02-11T00:07:41.415Z,72.38
2023-02-11T00:10:08.498Z,73.33
2023-02-11T00:12:39.606Z,73.47
2023-02-11T00:15:07.816Z,72.86
2023-02-11T00:17:34.362Z,72.16
2023-02-11T00:20:00.944Z,72.88
2023-02-11T00:22:27.853Z,73.10
2023-02-11T00:24:54.464Z,72.88
2023-02-11T00:27:21.018Z,72.54
2023-02-11T00:29:47.588Z,72.76
2023-02-11T00:32:14.491Z,73.44
2023-02-11T00:34:41.116Z,73.14
2023-02-11T00:37:07.780Z,73.02
2023-02-11T00:39:34.337Z,72.79
2023-02-11T00:42:00.873Z,73.25
2023-02-11T00:44:27.430Z,73.45
2023-02-11T00:46:54.074Z,73.60
2023-02-11T00:49:20.742Z,73.38
2023-02-11T00:51:47.378Z,73.31
2023-02-11T00:54:13.894Z,73.33
2023-02-11T00:56:40.420Z,72.92
2023-02-11T00:59:06.960Z,73.52
2023-02-11T01:01:34.783Z,73.22
2023-02-11T01:04:01.518Z,73.32
2023-02-11T01:06:28.131Z,72.91
2023-02-11T01:08:54.843Z,72.90
2023-02-11T01:11:22.432Z,73.34
2023-02-11T01:13:50.177Z,73.35
2023-02-11T01:16:19.003Z,73.38
2023-02-11T01:18:46.422Z,73.94
2023-02-11T01:21:13.215Z,73.60
2023-02-11T01:23:39.753Z,73.24
2023-02-11T01:26:06.334Z,73.49
2023-02-11T01:28:33.466Z,72.70
2023-02-11T01:31:01.577Z,73.26
2023-02-11T01:33:28.469Z,72.83
2023-02-11T01:35:55.417Z,72.69
2023-02-11T01:38:25.333Z,72.87
2023-02-11T01:41:12.840Z,73.12
2023-02-11T01:43:43.328Z,72.92
2023-02-11T01:46:30.055Z,72.20
2023-02-11T01:49:19.398Z,72.72
2023-02-11T01:51:58.208Z,72.69
2023-02-11T01:54:47.573Z,72.77
2023-02-11T01:57:25.140Z,72.53
2023-02-11T01:59:54.643Z,72.53
2023-02-11T02:02:27.227Z,72.67
2023-02-11T02:05:27.754Z,73.02
2023-02-11T02:08:03.305Z,73.24
2023-02-11T02:10:31.556Z,73.38
2023-02-11T02:12:58.158Z,73.04
2023-02-11T02:15:32.479Z,73.13
2023-02-11T02:18:14.116Z,73.14
2023-02-11T02:21:19.803Z,73.55
2023-02-11T02:23:46.273Z,73.31
2023-02-11T02:26:19.796Z,73.20
2023-02-11T02:29:11.162Z,73.32
2023-02-11T02:31:40.765Z,73.25
2023-02-11T02:34:20.063Z,73.55
2023-02-11T02:36:59.157Z,73.57
2023-02-11T02:39:31.559Z,73.60
2023-02-11T02:41:58.457Z,73.39
2023-02-11T02:44:25.403Z,73.26
2023-02-11T02:46:52.060Z,73.70
2023-02-11T02:49:21.023Z,73.74
2023-02-11T02:52:03.244Z,73.72
2023-02-11T02:54:48.451Z,73.73
2023-02-11T02:57:24.547Z,74.29
2023-02-11T02:59:53.935Z,73.87
2023-02-11T03:02:33.331Z,74.00
2023-02-11T03:05:06.015Z,73.75
2023-02-11T03:07:44.752Z,74.02
2023-02-11T03:10:19.487Z,74.10
2023-02-11T03:12:48.464Z,73.78
2023-02-11T03:15:18.341Z,74.14
2023-02-11T03:17:48.206Z,73.98
2023-02-11T03:20:18.050Z,73.46
2023-02-11T03:23:00.130Z,74.40
2023-02-11T03:25:34.835Z,73.55
2023-02-11T03:28:17.853Z,73.70
2023-02-11T03:30:55.300Z,73.71
2023-02-11T03:33:35.735Z,74.05
2023-02-11T03:36:18.146Z,73.22
2023-02-11T03:38:49.016Z,72.26
2023-02-11T03:41:18.086Z,72.45
2023-02-11T03:43:50.372Z,73.32
2023-02-11T03:46:21.171Z,73.13
2023-02-11T03:48:53.753Z,72.98
2023-02-11T03:51:22.552Z,72.99
2023-02-11T03:53:53.137Z,73.25
2023-02-11T03:56:22.141Z,73.60
2023-02-11T03:58:49.229Z,74.14
2023-02-11T04:01:16.042Z,74.43
2023-02-11T04:03:42.601Z,74.17
2023-02-11T04:06:09.231Z,74.12
2023-02-11T04:08:35.768Z,74.44
2023-02-11T04:11:02.318Z,74.22
2023-02-11T04:13:28.885Z,74.52
2023-02-11T04:15:55.679Z,74.99
2023-02-11T04:18:22.267Z,74.50
2023-02-11T04:20:50.336Z,74.35
2023-02-11T04:23:16.947Z,73.66
2023-02-11T04:25:43.459Z,74.26
2023-02-11T04:28:10.122Z,74.61
2023-02-11T04:30:36.779Z,74.29
2023-02-11T04:33:03.522Z,74.98
2023-02-11T04:35:30.120Z,75.01
2023-02-11T04:37:56.779Z,75.45
2023-02-11T04:40:23.320Z,74.96
2023-02-11T04:42:50.440Z,74.37
2023-02-11T04:45:16.963Z,74.61
2023-02-11T04:47:43.544Z,74.08
2023-02-11T04:50:10.236Z,73.72
2023-02-11T04:52:36.762Z,73.94
2023-02-11T04:55:03.355Z,74.37
2023-02-11T04:57:29.973Z,74.41
2023-02-11T04:59:56.546Z,73.73
2023-02-11T05:02:23.095Z,74.10
2023-02-11T05:04:49.622Z,74.14
2023-02-11T05:07:16.328Z,74.88
2023-02-11T05:09:42.852Z,74.58
2023-02-11T05:12:09.373Z,74.53
2023-02-11T05:14:35.927Z,74.69
2023-02-11T05:17:02.530Z,74.55
2023-02-11T05:19:29.153Z,74.21
2023-02-11T05:22:02.640Z,73.85
2023-02-11T05:24:31.752Z,73.26
2023-02-11T05:26:58.336Z,73.32
2023-02-11T05:29:24.870Z,73.23
2023-02-11T05:31:51.380Z,73.94
2023-02-11T05:34:17.961Z,73.45
2023-02-11T05:36:44.477Z,72.83
2023-02-11T05:39:11.223Z,72.79
2023-02-11T05:41:38.340Z,72.79
2023-02-11T05:44:04.970Z,72.91
2023-02-11T05:46:31.553Z,72.59
2023-02-11T05:48:58.513Z,73.14
2023-02-11T05:51:25.441Z,72.85
2023-02-11T05:53:52.065Z,73.06
2023-02-11T05:56:18.787Z,73.57
2023-02-11T05:58:45.414Z,73.52
2023-02-11T06:01:11.917Z,73.71
2023-02-11T06:03:38.486Z,73.73
2023-02-11T06:06:05.490Z,73.99
2023-02-11T06:08:32.086Z,74.06
2023-02-11T06:10:58.624Z,73.93
2023-02-11T06:13:25.175Z,73.66
2023-02-11T06:16:00.297Z,73.50
2023-02-11T06:18:26.967Z,73.01
2023-02-11T06:20:53.737Z,72.52
2023-02-11T06:23:20.881Z,72.38
2023-02-11T06:25:47.527Z,72.69
2023-02-11T06:28:14.101Z,72.16
2023-02-11T06:30:40.774Z,72.43
2023-02-11T06:33:07.554Z,72.23
2023-02-11T06:35:35.431Z,72.63
2023-02-11T06:38:02.232Z,72.99
2023-02-11T06:40:28.776Z,73.17
2023-02-11T06:42:55.484Z,73.16
2023-02-11T06:45:22.073Z,72.76
2023-02-11T06:47:51.293Z,72.97
2023-02-11T06:50:17.970Z,73.50
2023-02-11T06:52:44.619Z,73.46
2023-02-11T06:55:12.998Z,72.83
2023-02-11T06:57:39.555Z,73.12
2023-02-11T07:00:06.661Z,73.44
2023-02-11T07:02:33.199Z,73.26
2023-02-11T07:04:59.731Z,73.75
2023-02-11T07:07:27.751Z,73.61
2023-02-11T07:09:54.358Z,72.41
2023-02-11T07:12:20.936Z,72.73
2023-02-11T07:14:47.518Z,71.94
2023-02-11T07:17:14.678Z,72.28
2023-02-11T07:19:41.510Z,72.02
2023-02-11T07:22:08.007Z,72.26
2023-02-11T07:24:34.534Z,72.35
2023-02-11T07:27:01.008Z,71.71
2023-02-11T07:29:27.642Z,72.16
2023-02-11T07:31:54.406Z,72.21
2023-02-11T07:34:21.208Z,71.99
2023-02-11T07:36:49.078Z,72.07
2023-02-11T07:39:15.930Z,72.19
2023-02-11T07:41:43.106Z,72.19
2023-02-11T07:44:12.376Z,71.71
2023-02-11T07:46:43.175Z,72.05
2023-02-11T07:49:09.727Z,71.97
2023-02-11T07:51:36.345Z,71.36
2023-02-11T07:54:02.949Z,71.10
2023-02-11T07:56:30.267Z,71.09
2023-02-11T07:59:01.060Z,70.93
2023-02-11T08:01:28.860Z,70.59
2023-02-11T08:03:57.518Z,70.27
2023-02-11T08:06:26.325Z,70.47
2023-02-11T08:08:53.016Z,71.02
2023-02-11T08:11:25.161Z,70.90
2023-02-11T08:13:52.674Z,70.76
2023-02-11T08:16:27.997Z,71.02
2023-02-11T08:18:57.844Z,71.10
2023-02-11T08:21:25.217Z,70.21
2023-02-11T08:23:52.009Z,70.23
2023-02-11T08:26:21.159Z,69.11
2023-02-11T08:28:49.548Z,69.23
2023-02-11T08:31:24.552Z,69.16
2023-02-11T08:33:51.723Z,68.86
2023-02-11T08:36:23.810Z,68.57
2023-02-11T08:38:50.423Z,68.45
2023-02-11T08:41:17.982Z,68.70
2023-02-11T08:43:45.496Z,68.80
2023-02-11T08:46:15.106Z,69.08
2023-02-11T08:48:42.284Z,69.87
2023-02-11T08:51:23.304Z,69.69
2023-02-11T08:53:50.515Z,69.77
2023-02-11T08:56:18.805Z,69.48
2023-02-11T08:58:45.626Z,69.55
2023-02-11T09:01:20.110Z,69.44
2023-02-11T09:03:48.725Z,69.64
2023-02-11T09:06:17.427Z,68.80
2023-02-11T09:08:46.618Z,68.13
2023-02-11T09:11:13.916Z,67.33
2023-02-11T09:13:42.417Z,67.24
2023-02-11T09:16:15.773Z,66.70
2023-02-11T09:18:42.360Z,66.20
2023-02-11T09:21:09.428Z,65.95
2023-02-11T09:23:36.279Z,65.95
2023-02-11T09:26:09.199Z,65.67
2023-02-11T09:28:36.488Z,65.79
2023-02-11T09:31:08.674Z,65.56
2023-02-11T09:33:36.388Z,64.90
2023-02-11T09:36:05.465Z,64.85
2023-02-11T09:38:32.942Z,64.31
2023-02-11T09:40:59.702Z,65.62
2023-02-11T09:43:46.948Z,64.38
2023-02-11T09:46:15.953Z,64.60
2023-02-11T09:48:45.799Z,64.64
2023-02-11T09:51:55.805Z,64.23
2023-02-11T09:54:36.680Z,64.73
2023-02-11T09:57:03.830Z,65.62
2023-02-11T09:59:30.348Z,63.92
2023-02-11T10:02:02.388Z,63.51
2023-02-11T10:04:53.411Z,63.33
2023-02-11T10:07:43.782Z,62.77
2023-02-11T10:10:19.760Z,61.29
2023-02-11T10:13:06.495Z,62.32
2023-02-11T10:15:52.205Z,61.82
2023-02-11T10:18:27.934Z,61.84
2023-02-11T10:21:08.811Z,62.97
2023-02-11T10:23:39.413Z,60.84
2023-02-11T10:26:13.712Z,61.49
2023-02-11T10:28:43.941Z,60.66
2023-02-11T10:31:18.678Z,61.56
2023-02-11T10:34:05.558Z,60.49
2023-02-11T10:36:38.800Z,60.64
2023-02-11T10:39:20.541Z,60.22
2023-02-11T10:41:57.912Z,59.93
2023-02-11T10:44:31.088Z,60.61
2023-02-11T10:47:01.890Z,61.13
2023-02-11T10:49:39.457Z,59.59
2023-02-11T10:52:17.914Z,58.41
2023-02-11T10:54:57.482Z,58.13
2023-02-11T10:57:46.864Z,58.20
2023-02-11T11:00:42.809Z,59.23
2023-02-11T11:03:19.946Z,58.99
2023-02-11T11:06:01.216Z,58.06
2023-02-11T11:08:50.379Z,57.86
2023-02-11T11:11:21.946Z,58.47
2023-02-11T11:14:01.201Z,58.69
2023-02-11T11:16:35.955Z,59.65
2023-02-11T11:19:08.359Z,60.06
2023-02-11T11:21:40.883Z,59.19
2023-02-11T11:24:17.987Z,58.03
2023-02-11T11:26:56.970Z,57.52
2023-02-11T11:29:27.768Z,56.47
2023-02-11T11:31:57.872Z,56.56
2023-02-11T11:34:32.422Z,57.03
2023-02-11T11:37:01.946Z,57.35
2023-02-11T11:39:33.185Z,57.89
2023-02-11T11:42:00.884Z,58.18
2023-02-11T11:44:29.570Z,57.79
2023-02-11T11:47:23.253Z,57.01
2023-02-11T11:50:18.963Z,58.78
2023-02-11T11:52:54.946Z,57.31
2023-02-11T11:55:42.615Z,57.81
2023-02-11T11:58:18.796Z,56.48
2023-02-11T12:01:14.447Z,56.05
2023-02-11T12:04:02.672Z,56.63
2023-02-11T12:07:03.298Z,56.53
2023-02-11T12:09:52.159Z,55.92
2023-02-11T12:12:21.556Z,56.40
2023-02-11T12:14:53.108Z,56.12
2023-02-11T12:17:52.440Z,55.46
2023-02-11T12:20:26.398Z,54.76
2023-02-11T12:23:04.977Z,55.06
2023-02-11T12:25:44.208Z,54.51
2023-02-11T12:28:34.701Z,54.47
2023-02-11T12:31:24.725Z,55.06
2023-02-11T12:34:18.951Z,55.29
2023-02-11T12:37:02.933Z,55.59
2023-02-11T12:39:47.974Z,54.81
2023-02-11T12:43:00.270Z,54.48
2023-02-11T12:45:42.672Z,54.08
2023-02-11T12:48:15.379Z,54.14
2023-02-11T12:51:20.718Z,53.66
2023-02-11T12:54:17.364Z,53.63
2023-02-11T12:56:51.132Z,53.64
2023-02-11T12:59:34.681Z,53.06
2023-02-11T13:02:09.788Z,53.46
2023-02-11T13:04:41.682Z,54.46
2023-02-11T13:07:31.648Z,54.86
2023-02-11T13:10:21.820Z,55.41
2023-02-11T13:13:10.116Z,55.45
2023-02-11T13:15:37.650Z,55.11
2023-02-11T13:18:14.036Z,54.56
2023-02-11T13:20:52.867Z,54.44
2023-02-11T13:23:26.036Z,55.45
2023-02-11T13:26:10.032Z,54.32
2023-02-11T13:29:03.746Z,55.21
2023-02-11T13:31:30.815Z,55.39
2023-02-11T13:33:57.464Z,55.42
2023-02-11T13:36:30.217Z,55.31
2023-02-11T13:38:58.609Z,55.84
2023-02-11T13:41:29.465Z,55.70
2023-02-11T13:44:00.216Z,55.89
2023-02-11T13:46:30.207Z,54.54
2023-02-11T13:48:57.857Z,55.22
2023-02-11T13:51:35.147Z,55.13
2023-02-11T13:54:02.796Z,55.82
2023-02-11T13:56:33.651Z,55.58
2023-02-11T13:59:02.854Z,55.58
2023-02-11T14:02:06.528Z,56.19
2023-02-11T14:04:52.213Z,56.87
2023-02-11T14:07:40.403Z,57.32
2023-02-11T14:10:41.736Z,57.91
2023-02-11T14:13:36.748Z,58.30
2023-02-11T14:16:08.051Z,57.64
2023-02-11T14:18:51.970Z,57.53
2023-02-11T14:21:27.945Z,57.49
2023-02-11T14:24:14.542Z,57.67
2023-02-11T14:27:24.052Z,58.77
2023-02-11T14:29:51.146Z,58.15
2023-02-11T14:32:23.406Z,57.48
2023-02-11T14:35:15.441Z,57.37
2023-02-11T14:38:07.492Z,57.28
2023-02-11T14:40:51.373Z,57.18
2023-02-11T14:43:26.775Z,57.20
2023-02-11T14:45:56.756Z,57.92
2023-02-11T14:48:35.069Z,59.46
2023-02-11T14:51:13.672Z,58.95
2023-02-11T14:53:45.956Z,60.11
2023-02-11T14:56:34.840Z,60.49
2023-02-11T14:59:02.790Z,61.60
2023-02-11T15:01:33.981Z,61.95
2023-02-11T15:04:03.020Z,62.88
2023-02-11T15:06:34.011Z,63.37
2023-02-11T15:09:02.859Z,63.56
2023-02-11T15:11:34.596Z,63.21
2023-02-11T15:14:11.161Z,64.10
2023-02-11T15:16:46.263Z,64.68
2023-02-11T15:19:29.032Z,64.81
2023-02-11T15:21:56.992Z,64.93
2023-02-11T15:24:25.714Z,64.82
2023-02-11T15:27:15.631Z,65.35
2023-02-11T15:30:00.114Z,65.41
2023-02-11T15:32:45.966Z,65.74
2023-02-11T15:35:30.612Z,65.36
2023-02-11T15:37:58.988Z,65.46
2023-02-11T15:40:28.984Z,65.94
2023-02-11T15:42:59.066Z,65.91
2023-02-11T15:45:38.245Z,66.31
2023-02-11T15:48:20.514Z,66.45
2023-02-11T15:50:59.093Z,66.21
2023-02-11T15:53:28.963Z,66.45
2023-02-11T15:56:30.726Z,66.14
2023-02-11T15:59:02.786Z,66.30
2023-02-11T16:01:47.871Z,65.63
2023-02-11T16:04:29.686Z,66.43
2023-02-11T16:06:56.842Z,66.26
2023-02-11T16:09:36.408Z,66.38
2023-02-11T16:12:22.460Z,66.20
2023-02-11T16:14:49.079Z,66.69
2023-02-11T16:17:18.546Z,66.84
2023-02-11T16:19:47.882Z,66.24
2023-02-11T16:22:25.289Z,66.20
2023-02-11T16:24:54.125Z,66.31
2023-02-11T16:27:20.618Z,66.51
2023-02-11T16:29:49.148Z,66.47
2023-02-11T16:32:19.299Z,66.67
2023-02-11T16:34:46.351Z,67.23
2023-02-11T16:37:13.007Z,66.94
2023-02-11T16:39:39.623Z,66.87
2023-02-11T16:42:08.976Z,67.16
2023-02-11T16:44:35.729Z,66.94
2023-02-11T16:47:04.325Z,67.28
2023-02-11T16:49:34.986Z,67.03
2023-02-11T16:52:06.235Z,67.21
2023-02-11T16:54:32.869Z,67.71
2023-02-11T16:56:59.711Z,67.00
2023-02-11T16:59:26.259Z,66.90
2023-02-11T17:01:54.834Z,66.84
2023-02-11T17:04:25.631Z,67.05
2023-02-11T17:06:52.372Z,67.25
2023-02-11T17:09:21.727Z,67.07
2023-02-11T17:11:48.856Z,67.40
2023-02-11T17:14:15.606Z,67.03
2023-02-11T17:16:43.409Z,66.98
2023-02-11T17:19:13.347Z,67.25
2023-02-11T17:21:43.855Z,67.15
2023-02-11T17:24:11.378Z,66.93
2023-02-11T17:26:39.068Z,67.11
2023-02-11T17:29:07.567Z,66.40
2023-02-11T17:31:35.330Z,66.85
2023-02-11T17:34:02.602Z,66.72
2023-02-11T17:36:31.373Z,66.21
2023-02-11T17:38:58.896Z,66.35
2023-02-11T17:41:26.109Z,66.37
2023-02-11T17:43:53.227Z,66.24
2023-02-11T17:46:20.058Z,67.02
2023-02-11T17:48:46.937Z,66.79
2023-02-11T17:51:33.895Z,67.14
2023-02-11T17:54:05.016Z,67.51
2023-02-11T17:56:33.713Z,67.33
2023-02-11T17:59:02.509Z,67.36
2023-02-11T18:01:30.989Z,67.15
2023-02-11T18:03:57.892Z,67.70
2023-02-11T18:06:25.152Z,66.52
2023-02-11T18:08:52.268Z,67.19
2023-02-11T18:11:19.015Z,66.67
2023-02-11T18:13:45.647Z,66.83
2023-02-11T18:16:15.750Z,66.33
2023-02-11T18:18:46.687Z,65.69
2023-02-11T18:21:16.257Z,65.57
2023-02-11T18:23:43.070Z,65.71
2023-02-11T18:26:14.431Z,65.84
2023-02-11T18:28:43.282Z,65.81
2023-02-11T18:31:12.678Z,66.37
2023-02-11T18:33:40.901Z,66.28
2023-02-11T18:36:13.261Z,66.19
2023-02-11T18:38:40.471Z,67.20
2023-02-11T18:41:09.906Z,67.23
2023-02-11T18:43:40.230Z,67.23
2023-02-11T18:46:13.077Z,67.19
2023-02-11T18:48:40.386Z,67.25
2023-02-11T18:51:12.715Z,67.02
2023-02-11T18:53:39.771Z,66.88
2023-02-11T18:56:12.265Z,66.58
2023-02-11T18:58:39.461Z,67.55
2023-02-11T19:01:22.302Z,67.70
2023-02-11T19:03:49.095Z,67.22
2023-02-11T19:06:23.615Z,66.93
2023-02-11T19:08:50.566Z,67.26
2023-02-11T19:11:19.871Z,67.22
2023-02-11T19:13:48.136Z,67.42
2023-02-11T19:16:16.854Z,67.39
2023-02-11T19:18:43.552Z,66.68
2023-02-11T19:21:11.283Z,66.80
2023-02-11T19:23:38.402Z,67.05
2023-02-11T19:26:06.546Z,67.25
2023-02-11T19:28:34.248Z,67.22
2023-02-11T19:31:08.896Z,66.36
2023-02-11T19:33:36.164Z,66.67
2023-02-11T19:36:08.359Z,67.25
2023-02-11T19:38:36.212Z,67.35
2023-02-11T19:41:02.883Z,67.52
2023-02-11T19:43:29.533Z,67.96
2023-02-11T19:45:57.359Z,67.66
2023-02-11T19:48:25.208Z,69.01
2023-02-11T19:50:51.801Z,68.63
2023-02-11T19:53:18.490Z,68.33
2023-02-11T19:55:45.048Z,68.29
2023-02-11T19:58:11.776Z,68.60
2023-02-11T20:00:39.296Z,68.27
2023-02-11T20:03:06.100Z,68.08
2023-02-11T20:05:32.928Z,68.90
2023-02-11T20:07:59.479Z,68.87
2023-02-11T20:10:26.708Z,68.92
2023-02-11T20:12:53.245Z,68.82
2023-02-11T20:15:19.733Z,68.59
2023-02-11T20:17:46.238Z,69.12
2023-02-11T20:20:13.005Z,69.48
2023-02-11T20:22:39.592Z,68.87
2023-02-11T20:25:06.773Z,69.42
2023-02-11T20:27:33.448Z,68.93
2023-02-11T20:30:00.061Z,68.77
2023-02-11T20:32:26.652Z,68.62
2023-02-11T20:34:53.370Z,69.20
2023-02-11T20:37:19.979Z,68.65
2023-02-11T20:39:46.504Z,69.38
2023-02-11T20:42:14.373Z,69.57
2023-02-11T20:44:41.295Z,69.69
2023-02-11T20:47:07.836Z,69.45
2023-02-11T20:49:34.421Z,69.46
2023-02-11T20:52:01.001Z,69.19
2023-02-11T20:54:27.832Z,70.14
2023-02-11T20:56:55.421Z,69.90
2023-02-11T20:59:22.782Z,70.17
2023-02-11T21:01:53.484Z,70.03
2023-02-11T21:04:29.530Z,70.46
2023-02-11T21:06:59.687Z,70.20
2023-02-11T21:09:28.969Z,70.70
2023-02-11T21:11:55.928Z,70.92
2023-02-11T21:14:24.131Z,71.53
2023-02-11T21:16:51.218Z,72.49
2023-02-11T21:19:18.516Z,72.55
2023-02-11T21:21:45.590Z,72.89
2023-02-11T21:24:12.774Z,73.19
2023-02-11T21:26:39.403Z,73.40
2023-02-11T21:29:07.318Z,73.26
2023-02-11T21:31:34.724Z,73.97
2023-02-11T21:34:01.727Z,73.94
2023-02-11T21:36:29.341Z,74.16
2023-02-11T21:38:56.321Z,74.30
2023-02-11T21:41:23.186Z,74.46
2023-02-11T21:43:51.046Z,74.64
2023-02-11T21:46:18.952Z,74.48
2023-02-11T21:48:45.858Z,74.25
2023-02-11T21:51:18.426Z,74.50
2023-02-11T21:53:45.444Z,74.57
2023-02-11T21:56:17.406Z,74.62
2023-02-11T21:58:45.330Z,74.54
2023-02-11T22:01:14.309Z,75.53
2023-02-11T22:03:41.262Z,76.00
2023-02-11T22:06:13.006Z,76.22
2023-02-11T22:08:40.234Z,76.15
2023-02-11T22:11:09.481Z,75.99
2023-02-11T22:13:37.254Z,76.31
2023-02-11T22:16:07.399Z,76.00
2023-02-11T22:18:34.172Z,76.05
2023-02-11T22:21:06.245Z,76.87
2023-02-11T22:23:33.613Z,77.34
2023-02-11T22:26:07.590Z,77.75
2023-02-11T22:28:35.630Z,78.09
2023-02-11T22:31:02.500Z,78.60
2023-02-11T22:33:29.179Z,78.83
2023-02-11T22:36:07.237Z,78.79
2023-02-11T22:38:34.685Z,78.94
2023-02-11T22:41:05.930Z,78.56
2023-02-11T22:43:32.563Z,78.42
2023-02-11T22:46:03.085Z,78.90
2023-02-11T22:48:29.821Z,78.62
2023-02-11T22:50:56.629Z,78.16
2023-02-11T22:53:25.543Z,78.61
2023-02-11T22:55:52.426Z,78.59
2023-02-11T22:58:19.102Z,79.11
2023-02-11T23:00:46.198Z,79.01
2023-02-11T23:03:13.565Z,78.90
2023-02-11T23:05:42.041Z,78.84
2023-02-11T23:08:10.783Z,78.38
2023-02-11T23:10:39.290Z,78.96
2023-02-11T23:13:07.422Z,79.16
2023-02-11T23:15:34.455Z,78.88
2023-02-11T23:18:01.091Z,78.95
2023-02-11T23:20:27.710Z,79.00
2023-02-11T23:22:54.388Z,78.94
2023-02-11T23:25:21.065Z,78.81
2023-02-11T23:27:47.828Z,79.40
2023-02-11T23:30:14.736Z,79.08
2023-02-11T23:32:41.246Z,78.88
2023-02-11T23:35:08.082Z,79.10
2023-02-11T23:37:34.762Z,79.82
2023-02-11T23:40:01.260Z,79.84
2023-02-11T23:42:29.205Z,80.24
2023-02-11T23:44:55.900Z,79.74
2023-02-11T23:47:22.540Z,80.05
2023-02-11T23:49:49.095Z,80.49
2023-02-11T23:52:15.637Z,80.63
2023-02-11T23:54:43.444Z,80.08
2023-02-11T23:57:10.109Z,80.62
2023-02-11T23:59:36.672Z,80.89
